createdAt,value
2023-05-24T00:00:52.957Z,18.64
2023-05-24T00:03:58.686Z,18.74
2023-05-24T00:07:03.272Z,19.13
2023-05-24T00:10:08.587Z,19.17
2023-05-24T00:13:12.845Z,18.82
2023-05-24T00:16:16.627Z,18.64
2023-05-24T00:19:21.281Z,18.72
2023-05-24T00:22:27.772Z,18.45
2023-05-24T00:25:42.631Z,18.69
2023-05-24T00:28:46.637Z,18.28
2023-05-24T00:31:50.783Z,18.45
2023-05-24T00:34:55.442Z,18.59
2023-05-24T00:38:00.011Z,18.85
2023-05-24T00:41:06.830Z,19.21
2023-05-24T00:44:14.422Z,19.47
2023-05-24T00:47:18.532Z,19.70
2023-05-24T00:50:22.933Z,19.50
2023-05-24T00:53:27.417Z,19.67
2023-05-24T00:56:31.897Z,19.75
2023-05-24T00:59:36.777Z,19.73
2023-05-24T01:02:41.009Z,19.54
2023-05-24T01:05:46.250Z,19.48
2023-05-24T01:08:51.395Z,19.56
2023-05-24T01:11:55.637Z,19.15
2023-05-24T01:15:00.998Z,19.37
2023-05-24T01:18:09.423Z,19.24
2023-05-24T01:21:17.935Z,19.31
2023-05-24T01:24:22.273Z,19.11
2023-05-24T01:30:34.156Z,18.97
2023-05-24T01:33:38.597Z,19.03
2023-05-24T01:36:47.340Z,19.15
2023-05-24T01:39:52.813Z,18.64
2023-05-24T01:42:58.734Z,18.94
2023-05-24T01:46:02.897Z,18.90
2023-05-24T01:49:08.147Z,19.14
2023-05-24T01:52:13.715Z,19.12
2023-05-24T01:55:19.259Z,18.38
2023-05-24T01:58:23.663Z,18.86
2023-05-24T02:01:28.951Z,18.51
2023-05-24T02:04:34.568Z,18.92
2023-05-24T02:07:38.743Z,19.12
2023-05-24T02:10:44.455Z,18.84
2023-05-24T02:13:48.943Z,18.51
2023-05-24T02:16:52.814Z,18.86
2023-05-24T02:19:57.317Z,18.49
2023-05-24T02:23:01.184Z,18.75
2023-05-24T02:26:05.891Z,18.65
2023-05-24T02:29:10.358Z,18.61
2023-05-24T02:32:18.853Z,18.84
2023-05-24T02:35:24.413Z,19.06
2023-05-24T02:38:29.881Z,18.98
2023-05-24T02:41:34.477Z,18.93
2023-05-24T02:44:45.509Z,19.14
2023-05-24T02:47:49.902Z,19.24
2023-05-24T02:50:54.361Z,18.82
2023-05-24T02:53:59.949Z,18.99
2023-05-24T03:00:10.657Z,18.96
2023-05-24T03:03:15.482Z,18.96
2023-05-24T03:06:20.019Z,18.87
2023-05-24T03:09:24.293Z,18.95
2023-05-24T03:12:30.041Z,18.43
2023-05-24T03:15:35.572Z,18.09
2023-05-24T03:18:50.401Z,18.43
2023-05-24T03:21:54.670Z,18.87
2023-05-24T03:25:00.274Z,19.01
2023-05-24T03:28:04.619Z,19.02
2023-05-24T03:34:32.503Z,18.80
2023-05-24T03:37:38.044Z,17.94
2023-05-24T03:40:43.103Z,18.19
2023-05-24T03:43:47.082Z,18.19
2023-05-24T03:46:51.144Z,18.19
2023-05-24T03:49:55.314Z,18.75
2023-05-24T03:53:00.714Z,18.91
2023-05-24T03:56:04.526Z,18.88
2023-05-24T03:59:08.882Z,19.20
2023-05-24T04:02:13.177Z,17.71
2023-05-24T04:08:26.849Z,18.60
2023-05-24T04:11:31.251Z,18.28
2023-05-24T04:14:35.885Z,18.60
2023-05-24T04:17:41.018Z,18.97
2023-05-24T04:20:45.286Z,19.01
2023-05-24T04:23:50.664Z,19.20
2023-05-24T04:26:55.098Z,19.33
2023-05-24T04:29:59.081Z,19.01
2023-05-24T04:33:04.494Z,19.06
2023-05-24T04:36:10.791Z,19.09
2023-05-24T04:39:14.762Z,19.17
2023-05-24T04:42:30.245Z,18.87
2023-05-24T04:45:35.659Z,18.87
2023-05-24T04:48:39.834Z,18.88
2023-05-24T04:51:45.400Z,19.01
2023-05-24T04:58:14.089Z,19.17
2023-05-24T05:01:20.146Z,19.16
2023-05-24T05:04:27.609Z,18.95
2023-05-24T05:07:31.878Z,19.38
2023-05-24T05:10:36.065Z,19.07
2023-05-24T05:13:43.698Z,19.44
2023-05-24T05:16:47.877Z,19.14
2023-05-24T05:19:51.735Z,19.39
2023-05-24T05:22:58.791Z,19.53
2023-05-24T05:26:06.019Z,19.40
2023-05-24T05:29:10.014Z,19.55
2023-05-24T05:32:14.173Z,19.71
2023-05-24T05:35:18.210Z,19.05
2023-05-24T05:38:24.445Z,19.52
2023-05-24T05:41:28.586Z,19.31
2023-05-24T05:44:32.395Z,19.47
2023-05-24T05:47:37.588Z,19.49
2023-05-24T05:50:42.706Z,19.52
2023-05-24T05:53:46.930Z,19.70
2023-05-24T06:00:13.930Z,19.24
2023-05-24T06:03:17.905Z,19.52
2023-05-24T06:06:22.093Z,19.33
2023-05-24T06:09:27.168Z,19.65
2023-05-24T06:12:32.800Z,19.43
2023-05-24T06:15:36.934Z,19.38
2023-05-24T06:18:43.167Z,19.52
2023-05-24T06:21:51.605Z,19.60
2023-05-24T06:24:56.898Z,19.92
2023-05-24T06:28:03.365Z,19.85
2023-05-24T06:31:07.743Z,19.67
2023-05-24T06:34:14.245Z,19.94
2023-05-24T06:37:20.890Z,19.85
2023-05-24T06:40:24.914Z,20.17
2023-05-24T06:43:31.198Z,20.32
2023-05-24T06:46:35.535Z,20.30
2023-05-24T06:49:40.930Z,20.32
2023-05-24T06:52:46.926Z,19.64
2023-05-24T06:55:56.944Z,19.18
2023-05-24T06:59:03.106Z,19.78
2023-05-24T07:02:09.841Z,19.90
2023-05-24T07:08:36.270Z,19.51
2023-05-24T07:11:50.778Z,19.56
2023-05-24T07:14:58.121Z,19.56
2023-05-24T07:18:02.703Z,19.95
2023-05-24T07:21:06.860Z,19.93
2023-05-24T07:24:12.640Z,19.57
2023-05-24T07:27:20.878Z,20.15
2023-05-24T07:34:11.158Z,20.31
2023-05-24T07:37:20.042Z,19.68
2023-05-24T07:40:28.359Z,20.06
2023-05-24T07:43:37.065Z,20.40
2023-05-24T07:46:46.406Z,20.61
2023-05-24T07:56:37.205Z,20.22
2023-05-24T08:03:04.678Z,19.89
2023-05-24T08:06:10.477Z,20.36
2023-05-24T08:09:14.639Z,20.05
2023-05-24T08:12:20.132Z,19.72
2023-05-24T08:15:24.326Z,20.18
2023-05-24T08:18:32.505Z,20.75
2023-05-24T08:21:40.811Z,20.98
2023-05-24T08:24:47.849Z,20.90
2023-05-24T08:27:52.274Z,20.53
2023-05-24T08:31:01.051Z,20.05
2023-05-24T08:34:05.404Z,20.18
2023-05-24T08:37:09.616Z,20.32
2023-05-24T08:43:46.132Z,20.36
2023-05-24T08:46:51.834Z,20.84
2023-05-24T08:53:22.414Z,20.32
2023-05-24T08:56:30.606Z,19.74
2023-05-24T08:59:23.980Z,20.45
2023-05-24T09:00:16.125Z,19.70
2023-05-24T09:03:31.801Z,20.52
2023-05-24T09:09:59.225Z,20.44
2023-05-24T09:12:14.895Z,20.36
2023-05-24T09:13:09.753Z,20.66
2023-05-24T09:16:16.119Z,20.04
2023-05-24T09:19:29.116Z,19.86
2023-05-24T09:22:34.644Z,20.40
2023-05-24T09:25:40.890Z,20.36
2023-05-24T09:28:45.266Z,20.43
2023-05-24T09:31:52.720Z,20.90
2023-05-24T09:34:57.257Z,21.10
2023-05-24T09:38:51.632Z,21.52
2023-05-24T09:41:44.850Z,21.58
2023-05-24T09:48:17.944Z,21.44
2023-05-24T09:51:38.039Z,20.99
2023-05-24T09:58:11.959Z,21.57
2023-05-24T10:01:19.667Z,21.53
2023-05-24T10:04:25.452Z,21.85
2023-05-24T10:07:30.173Z,20.84
2023-05-24T10:10:34.300Z,21.13
2023-05-24T10:13:40.739Z,20.45
2023-05-24T10:16:44.814Z,20.40
2023-05-24T10:19:48.911Z,21.53
2023-05-24T10:22:53.594Z,21.87
2023-05-24T10:25:58.378Z,22.37
2023-05-24T10:29:02.256Z,22.60
2023-05-24T10:32:05.929Z,22.38
2023-05-24T10:35:09.755Z,22.70
2023-05-24T10:38:14.567Z,23.25
2023-05-24T10:41:19.799Z,23.17
2023-05-24T10:44:28.723Z,22.16
2023-05-24T10:47:38.900Z,22.38
2023-05-24T10:54:08.900Z,23.02
2023-05-24T10:57:17.802Z,22.98
2023-05-24T11:00:33.813Z,22.79
2023-05-24T11:03:40.905Z,22.66
2023-05-24T11:06:45.338Z,22.69
2023-05-24T11:09:50.652Z,22.87
2023-05-24T11:12:57.903Z,23.09
2023-05-24T11:16:04.745Z,23.41
2023-05-24T11:19:09.342Z,23.36
2023-05-24T11:22:12.999Z,23.17
2023-05-24T11:25:17.145Z,22.85
2023-05-24T11:28:20.976Z,22.77
2023-05-24T11:31:25.472Z,22.29
2023-05-24T11:34:41.590Z,21.88
2023-05-24T11:37:46.680Z,22.24
2023-05-24T11:40:50.974Z,22.53
2023-05-24T11:43:54.881Z,22.08
2023-05-24T11:46:58.858Z,22.04
2023-05-24T11:50:02.823Z,22.45
2023-05-24T11:53:06.745Z,22.68
2023-05-24T11:56:10.743Z,21.71
2023-05-24T11:59:14.921Z,20.91
2023-05-24T12:02:18.977Z,21.26
2023-05-24T12:05:26.968Z,21.13
2023-05-24T12:08:31.252Z,21.58
2023-05-24T12:11:37.496Z,22.51
2023-05-24T12:14:41.584Z,22.19
2023-05-24T12:21:09.016Z,21.89
2023-05-24T12:24:13.416Z,22.30
2023-05-24T12:27:17.768Z,22.55
2023-05-24T12:30:21.781Z,23.20
2023-05-24T12:33:26.170Z,22.50
2023-05-24T12:36:30.085Z,22.21
2023-05-24T12:39:34.183Z,22.37
2023-05-24T12:42:38.551Z,21.32
2023-05-24T12:45:42.356Z,21.54
2023-05-24T12:48:51.816Z,22.00
2023-05-24T12:51:55.933Z,22.20
2023-05-24T12:55:00.152Z,22.62
2023-05-24T12:58:04.159Z,21.73
2023-05-24T13:01:08.522Z,21.78
2023-05-24T13:04:12.403Z,21.93
2023-05-24T13:07:16.308Z,22.40
2023-05-24T13:10:20.642Z,22.40
2023-05-24T13:13:24.747Z,22.58
2023-05-24T13:16:28.863Z,22.65
2023-05-24T13:19:32.676Z,23.09
2023-05-24T13:22:36.658Z,22.79
2023-05-24T13:25:43.830Z,22.22
2023-05-24T13:29:15.075Z,22.75
2023-05-24T13:32:12.182Z,22.58
2023-05-24T13:35:16.403Z,22.61
2023-05-24T13:38:20.341Z,22.45
2023-05-24T13:41:24.173Z,22.41
2023-05-24T13:44:28.195Z,21.83
2023-05-24T13:47:40.022Z,22.35
2023-05-24T13:50:45.113Z,22.47
2023-05-24T13:53:52.118Z,22.30
2023-05-24T13:56:56.195Z,22.33
2023-05-24T14:00:00.364Z,22.21
2023-05-24T14:03:05.748Z,22.44
2023-05-24T14:06:09.788Z,21.78
2023-05-24T14:09:14.028Z,21.88
2023-05-24T14:12:21.347Z,21.54
2023-05-24T14:15:25.774Z,22.22
2023-05-24T14:18:29.681Z,21.35
2023-05-24T14:21:33.833Z,21.43
2023-05-24T14:24:38.023Z,21.14
2023-05-24T14:27:42.615Z,21.52
2023-05-24T14:30:47.127Z,21.91
2023-05-24T14:33:50.976Z,22.04
2023-05-24T14:36:54.955Z,21.78
2023-05-24T14:39:59.172Z,21.74
2023-05-24T14:43:03.320Z,21.35
2023-05-24T14:46:07.686Z,21.36
2023-05-24T14:49:11.742Z,21.62
2023-05-24T14:52:15.838Z,21.91
2023-05-24T14:55:19.795Z,22.09
2023-05-24T14:58:23.593Z,21.82
2023-05-24T15:01:27.527Z,21.76
2023-05-24T15:04:31.646Z,21.59
2023-05-24T15:07:38.092Z,21.27
2023-05-24T15:10:42.319Z,21.65
2023-05-24T15:13:46.527Z,22.02
2023-05-24T15:16:50.785Z,21.45
2023-05-24T15:19:54.821Z,21.66
2023-05-24T15:22:59.766Z,21.69
2023-05-24T15:26:03.780Z,21.22
2023-05-24T15:29:07.652Z,21.49
2023-05-24T15:32:11.711Z,21.45
2023-05-24T15:35:15.567Z,21.03
2023-05-24T15:38:19.788Z,21.28
2023-05-24T15:41:23.661Z,21.34
2023-05-24T15:44:27.661Z,21.44
2023-05-24T15:47:31.938Z,21.42
2023-05-24T15:50:51.891Z,21.85
2023-05-24T15:54:00.246Z,21.29
2023-05-24T16:00:24.399Z,21.06
2023-05-24T16:03:28.956Z,21.14
2023-05-24T16:06:34.635Z,20.58
2023-05-24T16:12:59.599Z,21.07
2023-05-24T16:16:05.739Z,20.43
2023-05-24T16:19:11.252Z,20.36
2023-05-24T16:22:16.874Z,20.39
2023-05-24T16:25:21.227Z,20.43
2023-05-24T16:28:31.736Z,20.30
2023-05-24T16:35:25.591Z,20.49
2023-05-24T16:39:51.694Z,20.74
2023-05-24T16:41:56.001Z,20.28
2023-05-24T16:45:04.418Z,20.50
2023-05-24T16:48:08.994Z,19.99
2023-05-24T16:51:13.733Z,20.23
2023-05-24T16:54:18.169Z,19.94
2023-05-24T16:57:22.119Z,19.91
2023-05-24T17:00:33.340Z,19.74
2023-05-24T17:03:37.807Z,19.45
2023-05-24T17:06:42.097Z,19.22
2023-05-24T17:09:45.915Z,19.26
2023-05-24T17:12:49.662Z,19.89
2023-05-24T17:15:55.024Z,20.01
2023-05-24T17:19:03.192Z,19.61
2023-05-24T17:22:07.742Z,19.72
2023-05-24T17:25:13.626Z,20.00
2023-05-24T17:28:17.758Z,19.78
2023-05-24T17:31:21.848Z,20.35
2023-05-24T17:34:26.428Z,19.11
2023-05-24T17:37:30.388Z,19.42
2023-05-24T17:40:34.609Z,19.48
2023-05-24T17:43:42.963Z,19.58
2023-05-24T17:46:47.170Z,19.40
2023-05-24T17:49:51.184Z,18.92
2023-05-24T17:52:55.136Z,19.19
2023-05-24T17:56:00.597Z,19.33
2023-05-24T17:59:04.993Z,18.95
2023-05-24T18:02:09.065Z,19.29
2023-05-24T18:05:13.351Z,19.23
2023-05-24T18:08:17.527Z,19.42
2023-05-24T18:11:21.806Z,19.62
2023-05-24T18:14:26.141Z,19.78
2023-05-24T18:17:33.672Z,19.65
2023-05-24T18:20:39.568Z,19.18
2023-05-24T18:23:44.130Z,19.00
2023-05-24T18:26:48.946Z,18.58
2023-05-24T18:29:52.951Z,19.14
2023-05-24T18:33:05.497Z,18.89
2023-05-24T18:36:13.923Z,18.37
2023-05-24T18:39:18.006Z,18.31
2023-05-24T18:42:22.118Z,18.17
2023-05-24T18:45:26.256Z,18.45
2023-05-24T18:48:30.398Z,18.24
2023-05-24T18:51:38.631Z,17.88
2023-05-24T18:54:42.587Z,17.79
2023-05-24T18:57:46.292Z,17.78
2023-05-24T19:00:51.572Z,17.67
2023-05-24T19:03:55.812Z,17.64
2023-05-24T19:07:00.256Z,17.68
2023-05-24T19:10:04.414Z,17.54
2023-05-24T19:13:08.502Z,17.68
2023-05-24T19:16:12.523Z,17.29
2023-05-24T19:19:16.246Z,17.38
2023-05-24T19:22:20.251Z,17.50
2023-05-24T19:25:25.598Z,17.35
2023-05-24T19:28:31.444Z,17.23
2023-05-24T19:31:35.456Z,17.40
2023-05-24T19:34:39.340Z,17.14
2023-05-24T19:37:43.204Z,17.29
2023-05-24T19:40:47.083Z,17.39
2023-05-24T19:43:51.098Z,17.65
2023-05-24T19:46:55.158Z,17.60
2023-05-24T19:49:59.192Z,17.42
2023-05-24T19:53:02.964Z,17.49
2023-05-24T19:56:06.776Z,17.34
2023-05-24T19:59:11.749Z,17.07
2023-05-24T20:02:15.826Z,17.19
2023-05-24T20:05:20.078Z,17.28
2023-05-24T20:08:24.034Z,17.10
2023-05-24T20:11:28.244Z,16.83
2023-05-24T20:14:34.567Z,16.57
2023-05-24T20:17:38.720Z,16.73
2023-05-24T20:20:43.812Z,16.62
2023-05-24T20:23:48.236Z,16.44
2023-05-24T20:30:14.414Z,16.38
2023-05-24T20:33:18.501Z,16.38
2023-05-24T20:36:22.552Z,16.38
2023-05-24T20:39:26.220Z,16.51
2023-05-24T20:42:30.121Z,16.56
2023-05-24T20:45:34.703Z,16.79
2023-05-24T20:48:38.645Z,16.39
2023-05-24T20:51:44.377Z,16.25
2023-05-24T20:54:48.715Z,16.18
2023-05-24T20:58:11.141Z,16.26
2023-05-24T21:01:15.838Z,16.32
2023-05-24T21:04:20.198Z,16.57
2023-05-24T21:07:24.350Z,16.55
2023-05-24T21:10:29.001Z,16.34
2023-05-24T21:13:33.141Z,16.38
2023-05-24T21:16:37.654Z,16.46
2023-05-24T21:19:44.055Z,16.13
2023-05-24T21:22:51.584Z,16.09
2023-05-24T21:25:55.346Z,15.75
2023-05-24T21:29:00.576Z,15.97
2023-05-24T21:32:04.714Z,15.71
2023-05-24T21:35:08.938Z,15.70
2023-05-24T21:38:13.073Z,16.21
2023-05-24T21:41:18.444Z,15.83
2023-05-24T21:44:23.077Z,15.87
2023-05-24T21:47:27.596Z,15.69
2023-05-24T21:50:32.004Z,15.47
2023-05-24T21:53:36.321Z,15.46
2023-05-24T21:56:41.321Z,15.34
2023-05-24T21:59:45.548Z,15.10
2023-05-24T22:02:49.532Z,15.27
2023-05-24T22:05:55.140Z,15.38
2023-05-24T22:08:59.508Z,15.62
2023-05-24T22:12:04.496Z,15.60
2023-05-24T22:15:14.546Z,15.45
2023-05-24T22:18:18.559Z,15.15
2023-05-24T22:21:22.802Z,15.47
2023-05-24T22:24:27.274Z,15.61
2023-05-24T22:27:34.577Z,15.56
2023-05-24T22:30:39.002Z,15.89
2023-05-24T22:33:42.915Z,15.30
2023-05-24T22:36:49.861Z,15.32
2023-05-24T22:39:54.296Z,15.34
2023-05-24T22:42:58.137Z,15.34
2023-05-24T22:46:02.266Z,15.42
2023-05-24T22:49:06.236Z,15.22
2023-05-24T22:52:09.969Z,15.01
2023-05-24T22:55:16.966Z,15.32
2023-05-24T22:58:21.390Z,15.29
2023-05-24T23:01:26.988Z,15.05
2023-05-24T23:04:33.768Z,15.56
2023-05-24T23:07:38.817Z,15.35
2023-05-24T23:10:46.179Z,15.37
2023-05-24T23:13:54.521Z,15.45
2023-05-24T23:17:00.153Z,15.17
2023-05-24T23:20:07.307Z,15.71
2023-05-24T23:23:14.872Z,15.35
2023-05-24T23:36:37.567Z,15.49
2023-05-24T23:39:50.658Z,15.42
2023-05-24T23:46:32.148Z,15.10
2023-05-24T23:49:36.464Z,15.29
2023-05-24T23:52:43.769Z,15.34
2023-05-24T23:59:13.793Z,15.21
